Time;durP1;ratioP1;P1;durP2;ratioP2;P2;SDS_P1;SDS_P2;PMS_P1;PMS_P2;Temp;Humidity;BMP_temperature;BMP_pressure;BME280_temperature;BME280_humidity;BME280_pressure;Samples;Min_cycle;Max_cycle;Signal;HPM_P1;HPM_P2
2022/12/16 00:02:23;;;;;;;;;;;-3.40;99.90;;;;;;5050228;28;19977;-70
2022/12/16 00:04:50;;;;;;;;;;;-3.40;99.90;;;;;;5049754;28;20439;-70
2022/12/16 00:07:17;;;;;;;;;;;-3.50;99.90;;;;;;5048627;28;19935;-70
2022/12/16 00:09:45;;;;;;;;;;;-3.50;99.90;;;;;;5044668;28;19998;-68
2022/12/16 00:12:11;;;;;;;;;;;-3.50;99.90;;;;;;5048596;28;20038;-68
2022/12/16 00:14:38;;;;;;;;;;;-3.60;99.90;;;;;;5048935;28;19939;-69
2022/12/16 00:17:05;;;;;;;;;;;-3.60;99.90;;;;;;5050736;28;19933;-68
2022/12/16 00:19:31;;;;;;;;;;;-3.60;99.90;;;;;;5046679;28;19935;-68
2022/12/16 00:21:58;;;;;;;;;;;-3.60;99.90;;;;;;5046776;28;20027;-68
2022/12/16 00:24:25;;;;;;;;;;;-3.60;99.90;;;;;;5045907;28;19939;-68
2022/12/16 00:26:53;;;;;;;;;;;-3.70;99.90;;;;;;5048211;28;19940;-69
2022/12/16 00:29:20;;;;;;;;;;;-3.60;99.90;;;;;;5048568;28;19928;-69
2022/12/16 00:31:46;;;;;;;;;;;-3.60;99.90;;;;;;5045458;28;19932;-69
2022/12/16 00:34:13;;;;;;;;;;;-3.50;99.90;;;;;;5049239;28;19935;-69
2022/12/16 00:36:40;;;;;;;;;;;-3.50;99.90;;;;;;5048663;28;19934;-69
2022/12/16 00:39:07;;;;;;;;;;;-3.50;99.90;;;;;;5048095;28;19935;-69
2022/12/16 00:41:33;;;;;;;;;;;-3.50;99.90;;;;;;5048005;28;19938;-69
2022/12/16 00:44:02;;;;;;;;;;;-3.50;99.90;;;;;;5048333;28;22288;-68
2022/12/16 00:46:28;;;;;;;;;;;-3.60;99.90;;;;;;5049594;28;19928;-69
2022/12/16 00:48:55;;;;;;;;;;;-3.60;99.90;;;;;;5048357;28;19933;-69
2022/12/16 00:51:22;;;;;;;;;;;-3.60;99.90;;;;;;5049032;28;19929;-69
2022/12/16 00:53:48;;;;;;;;;;;-3.60;99.90;;;;;;5049373;28;20031;-70
2022/12/16 00:56:17;;;;;;;;;;;-3.60;99.90;;;;;;5048490;28;19967;-69
2022/12/16 00:58:46;;;;;;;;;;;-3.60;99.90;;;;;;5047409;28;19924;-70
2022/12/16 01:01:14;;;;;;;;;;;-3.60;99.90;;;;;;5049308;28;19978;-71
2022/12/16 01:03:41;;;;;;;;;;;-3.60;99.90;;;;;;5047389;28;19933;-71
2022/12/16 01:06:09;;;;;;;;;;;-3.60;99.90;;;;;;5047778;28;19945;-70
2022/12/16 01:08:36;;;;;;;;;;;-3.70;99.90;;;;;;5048848;28;19942;-70
2022/12/16 01:11:02;;;;;;;;;;;-3.70;99.90;;;;;;5048532;28;19932;-69
2022/12/16 01:13:29;;;;;;;;;;;-3.70;99.90;;;;;;5047027;28;20360;-68
2022/12/16 01:15:59;;;;;;;;;;;-3.70;99.90;;;;;;5048897;28;20447;-69
2022/12/16 01:18:27;;;;;;;;;;;-3.70;99.90;;;;;;5047723;28;19925;-68
2022/12/16 01:20:54;;;;;;;;;;;-3.70;99.90;;;;;;5049611;28;19928;-69
2022/12/16 01:23:21;;;;;;;;;;;-3.70;99.90;;;;;;5044102;28;19943;-68
2022/12/16 01:25:50;;;;;;;;;;;-3.80;99.90;;;;;;5047802;28;19929;-69
2022/12/16 01:28:17;;;;;;;;;;;-3.80;99.90;;;;;;5046319;28;19928;-69
2022/12/16 01:30:43;;;;;;;;;;;-3.80;99.90;;;;;;5045945;28;19932;-68
2022/12/16 01:33:11;;;;;;;;;;;-3.80;99.90;;;;;;5043829;28;20015;-69
2022/12/16 01:35:39;;;;;;;;;;;-3.80;99.90;;;;;;5047030;28;19928;-69
2022/12/16 01:38:05;;;;;;;;;;;-3.80;99.90;;;;;;5043498;28;19935;-69
2022/12/16 01:40:32;;;;;;;;;;;-3.80;99.90;;;;;;5047166;28;20043;-69
2022/12/16 01:42:59;;;;;;;;;;;-3.90;99.90;;;;;;5046781;28;20413;-70
2022/12/16 01:45:29;;;;;;;;;;;-3.90;99.90;;;;;;5046366;28;20017;-69
2022/12/16 01:47:57;;;;;;;;;;;-3.90;99.90;;;;;;5047479;28;20041;-70
2022/12/16 01:50:24;;;;;;;;;;;-4.00;99.90;;;;;;5046589;28;19924;-71
2022/12/16 01:52:53;;;;;;;;;;;-4.00;99.90;;;;;;5045890;28;19970;-70
2022/12/16 01:55:23;;;;;;;;;;;-4.00;99.90;;;;;;5046691;28;19925;-70
2022/12/16 01:57:53;;;;;;;;;;;-4.00;99.90;;;;;;5046049;28;19936;-70
2022/12/16 02:00:20;;;;;;;;;;;-3.90;99.90;;;;;;5046258;28;19929;-70
2022/12/16 02:02:47;;;;;;;;;;;-4.00;99.90;;;;;;5045432;28;19928;-70
2022/12/16 02:05:21;;;;;;;;;;;-3.90;99.90;;;;;;5046843;28;20094;-70
2022/12/16 02:07:54;;;;;;;;;;;-3.80;99.90;;;;;;5046957;28;19936;-70
2022/12/16 02:10:23;;;;;;;;;;;-3.60;99.90;;;;;;5047959;28;20019;-69
2022/12/16 02:12:55;;;;;;;;;;;-3.40;99.90;;;;;;5041766;28;19972;-70
2022/12/16 02:15:26;;;;;;;;;;;-3.30;99.90;;;;;;5047679;28;20445;-70
2022/12/16 02:17:58;;;;;;;;;;;-3.10;99.90;;;;;;5045252;28;19929;-70
2022/12/16 02:20:43;;;;;;;;;;;-2.90;99.90;;;;;;5048283;28;20015;-70
2022/12/16 02:23:27;;;;;;;;;;;-2.90;99.90;;;;;;5044554;28;19937;-70
2022/12/16 02:26:05;;;;;;;;;;;-2.90;99.90;;;;;;5036665;28;20118;-69
2022/12/16 02:28:37;;;;;;;;;;;-2.80;99.90;;;;;;5048611;28;19925;-69
2022/12/16 02:31:13;;;;;;;;;;;-2.90;99.90;;;;;;5043358;28;19929;-69
2022/12/16 02:33:43;;;;;;;;;;;-2.80;99.90;;;;;;5043088;28;19932;-68
2022/12/16 02:36:12;;;;;;;;;;;-2.60;99.90;;;;;;5044566;28;20386;-68
2022/12/16 02:38:42;;;;;;;;;;;-2.50;99.90;;;;;;5045684;28;20754;-68
2022/12/16 02:41:12;;;;;;;;;;;-2.40;99.90;;;;;;5048204;28;22282;-68
2022/12/16 02:43:49;;;;;;;;;;;-2.30;99.90;;;;;;5045259;28;20107;-68
2022/12/16 02:46:17;;;;;;;;;;;-2.30;99.90;;;;;;5045439;28;20193;-68
2022/12/16 02:48:44;;;;;;;;;;;-2.20;99.90;;;;;;5045830;28;19932;-68
2022/12/16 02:51:11;;;;;;;;;;;-2.20;99.90;;;;;;5046249;28;20131;-68
2022/12/16 02:53:38;;;;;;;;;;;-2.20;99.90;;;;;;5046364;28;20498;-68
2022/12/16 02:56:08;;;;;;;;;;;-2.20;99.90;;;;;;5047695;28;20306;-68
2022/12/16 02:58:36;;;;;;;;;;;-2.10;99.90;;;;;;5046759;28;19929;-67
2022/12/16 03:01:06;;;;;;;;;;;-2.10;99.90;;;;;;5045764;28;20404;-68
2022/12/16 03:03:37;;;;;;;;;;;-2.00;99.90;;;;;;5046769;28;20035;-68
2022/12/16 03:06:04;;;;;;;;;;;-2.00;99.90;;;;;;5047330;28;20033;-70
2022/12/16 03:08:34;;;;;;;;;;;-1.90;99.90;;;;;;5048047;28;20213;-69
2022/12/16 03:11:01;;;;;;;;;;;-1.90;99.90;;;;;;5047243;28;20363;-68
2022/12/16 03:13:29;;;;;;;;;;;-1.70;99.90;;;;;;5050784;28;19951;-69
2022/12/16 03:15:58;;;;;;;;;;;-1.50;99.90;;;;;;5051493;28;19981;-70
2022/12/16 03:18:25;;;;;;;;;;;-1.30;99.90;;;;;;5050990;28;21223;-71
2022/12/16 03:20:55;;;;;;;;;;;-1.20;99.90;;;;;;5048117;28;19928;-70
2022/12/16 03:23:25;;;;;;;;;;;-1.10;99.90;;;;;;5049373;28;19999;-70
2022/12/16 03:25:55;;;;;;;;;;;-1.00;99.90;;;;;;5050574;28;19932;-69
2022/12/16 03:28:28;;;;;;;;;;;-1.00;99.90;;;;;;5049027;28;19928;-70
2022/12/16 03:31:00;;;;;;;;;;;-0.90;99.90;;;;;;5056514;28;19982;-70
2022/12/16 03:33:29;;;;;;;;;;;-0.90;99.90;;;;;;5047060;28;20387;-70
2022/12/16 03:35:59;;;;;;;;;;;-0.90;99.90;;;;;;5048523;28;19975;-70
2022/12/16 03:38:26;;;;;;;;;;;-0.80;99.90;;;;;;5048480;28;20019;-70
2022/12/16 03:40:54;;;;;;;;;;;-0.80;99.90;;;;;;5049549;28;19925;-70
2022/12/16 03:43:21;;;;;;;;;;;-0.70;99.90;;;;;;5049546;28;20403;-70
2022/12/16 03:45:51;;;;;;;;;;;-0.60;99.90;;;;;;5049429;28;20352;-70
2022/12/16 03:48:22;;;;;;;;;;;-0.70;99.90;;;;;;5049815;28;19931;-70
2022/12/16 03:50:49;;;;;;;;;;;-0.70;99.90;;;;;;5049879;28;20015;-70
2022/12/16 03:53:17;;;;;;;;;;;-0.70;99.90;;;;;;5046890;28;20334;-70
2022/12/16 03:55:44;;;;;;;;;;;-0.80;99.90;;;;;;5049588;28;20023;-70
2022/12/16 03:58:11;;;;;;;;;;;-0.70;99.90;;;;;;5049327;28;19929;-68
2022/12/16 04:00:37;;;;;;;;;;;-0.70;99.90;;;;;;5046260;28;20325;-69
2022/12/16 04:03:04;;;;;;;;;;;-0.60;99.90;;;;;;5048879;28;19948;-69
2022/12/16 04:05:30;;;;;;;;;;;-0.60;99.90;;;;;;5045319;28;19933;-69
2022/12/16 04:07:57;;;;;;;;;;;-0.60;99.90;;;;;;5046591;28;19932;-69
2022/12/16 04:24:18;;;;;;;;;;;-0.40;99.90;;;;;;5046297;28;20449;-69
2022/12/16 04:29:32;;;;;;;;;;;-0.30;99.90;;;;;;5048162;28;20311;-68
2022/12/16 04:31:59;;;;;;;;;;;-0.40;99.90;;;;;;5047776;28;19928;-69
2022/12/16 04:34:25;;;;;;;;;;;-0.40;99.90;;;;;;5048608;28;20375;-70
